createdAt,value
2023-04-18T00:00:49.819Z,7.00
2023-04-18T00:03:17.584Z,7.10
2023-04-18T00:05:48.317Z,7.00
2023-04-18T00:08:16.042Z,7.00
2023-04-18T00:10:43.495Z,7.00
2023-04-18T00:13:12.164Z,7.00
2023-04-18T00:15:41.717Z,6.90
2023-04-18T00:18:10.591Z,7.00
2023-04-18T00:20:39.284Z,7.00
2023-04-18T00:23:07.828Z,6.90
2023-04-18T00:25:35.328Z,6.90
2023-04-18T00:28:02.812Z,7.00
2023-04-18T00:30:30.348Z,6.90
2023-04-18T00:32:57.950Z,6.80
2023-04-18T00:35:25.634Z,6.80
2023-04-18T00:37:53.230Z,6.90
2023-04-18T00:40:20.657Z,6.80
2023-04-18T00:42:48.126Z,6.90
2023-04-18T00:45:15.710Z,6.80
2023-04-18T00:47:43.258Z,6.70
2023-04-18T00:50:11.612Z,6.80
2023-04-18T00:52:39.402Z,6.90
2023-04-18T00:55:08.265Z,6.70
2023-04-18T00:57:36.174Z,6.80
2023-04-18T01:00:10.004Z,6.70
2023-04-18T01:02:39.772Z,6.80
2023-04-18T01:05:08.809Z,6.90
2023-04-18T01:07:41.745Z,6.80
2023-04-18T01:10:10.734Z,6.90
2023-04-18T01:12:38.276Z,6.80
2023-04-18T01:15:06.717Z,6.70
2023-04-18T01:17:35.940Z,6.70
2023-04-18T01:20:06.333Z,6.60
2023-04-18T01:22:33.952Z,6.60
2023-04-18T01:25:06.277Z,6.80
2023-04-18T01:27:33.879Z,6.80
2023-04-18T01:30:01.357Z,6.80
2023-04-18T01:32:30.782Z,6.90
2023-04-18T01:34:58.305Z,6.70
2023-04-18T01:37:25.865Z,6.80
2023-04-18T01:39:53.884Z,6.60
2023-04-18T01:42:21.393Z,6.70
2023-04-18T01:44:48.819Z,6.60
2023-04-18T01:47:16.353Z,6.70
2023-04-18T01:49:48.157Z,6.60
2023-04-18T01:52:16.224Z,6.70
2023-04-18T01:54:43.690Z,6.70
2023-04-18T01:57:11.176Z,6.50
2023-04-18T01:59:38.996Z,6.50
2023-04-18T02:02:06.592Z,6.50
2023-04-18T02:04:34.108Z,6.60
2023-04-18T02:07:01.580Z,6.70
2023-04-18T02:09:29.023Z,6.40
2023-04-18T02:11:59.581Z,6.50
2023-04-18T02:14:28.099Z,6.40
2023-04-18T02:16:55.668Z,6.50
2023-04-18T02:19:24.338Z,6.60
2023-04-18T02:21:52.051Z,6.40
2023-04-18T02:24:19.750Z,6.50
2023-04-18T02:26:47.993Z,6.50
2023-04-18T02:29:15.600Z,6.40
2023-04-18T02:31:43.051Z,6.40
2023-04-18T02:34:10.816Z,6.50
2023-04-18T02:36:38.317Z,6.30
2023-04-18T02:39:05.825Z,6.40
2023-04-18T02:41:34.803Z,6.40
2023-04-18T02:44:02.238Z,6.50
2023-04-18T02:46:29.755Z,6.40
2023-04-18T02:48:57.262Z,6.30
2023-04-18T02:51:26.846Z,6.50
2023-04-18T02:53:56.421Z,6.50
2023-04-18T02:56:26.996Z,6.50
2023-04-18T02:59:13.017Z,6.40
2023-04-18T03:02:01.331Z,6.40
2023-04-18T03:04:29.150Z,6.40
2023-04-18T03:07:02.100Z,6.60
2023-04-18T03:09:34.658Z,6.40
2023-04-18T03:12:07.411Z,6.40
2023-04-18T03:14:38.057Z,6.40
2023-04-18T03:17:06.268Z,6.40
2023-04-18T03:19:39.757Z,6.60
2023-04-18T03:22:10.689Z,6.70
2023-04-18T03:24:45.293Z,6.70
2023-04-18T03:27:13.749Z,6.50
2023-04-18T03:29:43.098Z,6.60
2023-04-18T03:32:10.898Z,6.70
2023-04-18T03:34:38.774Z,6.80
2023-04-18T03:37:08.558Z,6.70
2023-04-18T03:39:41.792Z,6.70
2023-04-18T03:42:09.955Z,6.60
2023-04-18T03:44:37.377Z,6.60
2023-04-18T03:47:05.157Z,6.60
2023-04-18T03:49:35.953Z,6.80
2023-04-18T03:52:04.500Z,6.70
2023-04-18T03:54:32.013Z,6.60
2023-04-18T03:56:59.726Z,6.60
2023-04-18T03:59:27.898Z,6.80
2023-04-18T04:01:56.375Z,6.80
2023-04-18T04:04:23.986Z,6.70
2023-04-18T04:06:51.639Z,6.80
2023-04-18T04:09:19.239Z,6.70
2023-04-18T04:11:46.912Z,6.90
2023-04-18T04:14:16.268Z,6.80
2023-04-18T04:16:46.695Z,6.90
2023-04-18T04:19:17.018Z,6.80
2023-04-18T04:21:57.694Z,6.80
2023-04-18T04:24:25.238Z,6.70
2023-04-18T04:26:53.486Z,6.80
2023-04-18T04:29:24.315Z,6.80
2023-04-18T04:31:53.142Z,6.80
2023-04-18T04:34:31.704Z,6.90
2023-04-18T04:37:01.511Z,6.90
2023-04-18T04:39:30.611Z,6.90
2023-04-18T04:42:09.750Z,6.90
2023-04-18T04:44:46.667Z,6.90
2023-04-18T04:47:16.000Z,7.10
2023-04-18T04:49:44.486Z,7.00
2023-04-18T04:52:12.010Z,6.90
2023-04-18T04:54:39.566Z,6.80
2023-04-18T04:57:09.785Z,6.80
2023-04-18T04:59:37.243Z,7.00
2023-04-18T05:02:06.507Z,6.80
2023-04-18T05:04:34.198Z,6.70
2023-04-18T05:07:01.771Z,7.00
2023-04-18T05:09:29.318Z,6.80
2023-04-18T05:11:56.881Z,7.00
2023-04-18T05:14:25.206Z,6.80
2023-04-18T05:16:52.886Z,7.00
2023-04-18T05:19:20.424Z,7.00
2023-04-18T05:21:47.884Z,7.00
2023-04-18T05:24:15.823Z,7.00
2023-04-18T05:26:43.761Z,6.70
2023-04-18T05:29:11.275Z,6.80
2023-04-18T05:31:38.735Z,6.80
2023-04-18T05:34:06.214Z,7.10
2023-04-18T05:36:33.810Z,7.00
2023-04-18T05:39:01.413Z,6.80
2023-04-18T05:41:28.857Z,6.80
2023-04-18T05:44:04.873Z,6.80
2023-04-18T05:46:33.620Z,7.10
2023-04-18T05:49:01.732Z,7.10
2023-04-18T05:51:29.327Z,6.90
2023-04-18T05:53:56.868Z,7.10
2023-04-18T05:56:24.365Z,7.00
2023-04-18T05:58:51.942Z,7.10
2023-04-18T06:01:19.561Z,7.10
2023-04-18T06:03:47.535Z,7.00
2023-04-18T06:06:15.512Z,7.10
2023-04-18T06:08:42.979Z,7.30
2023-04-18T06:11:10.613Z,7.20
2023-04-18T06:13:38.072Z,7.10
2023-04-18T06:16:06.067Z,7.00
2023-04-18T06:18:33.890Z,7.20
2023-04-18T06:21:01.353Z,7.10
2023-04-18T06:23:28.888Z,7.30
2023-04-18T06:25:57.317Z,7.00
2023-04-18T06:28:25.362Z,7.30
2023-04-18T06:30:52.888Z,7.20
2023-04-18T06:33:20.382Z,7.30
2023-04-18T06:35:48.089Z,7.20
2023-04-18T06:38:15.602Z,7.40
2023-04-18T06:40:43.046Z,7.40
2023-04-18T06:43:10.555Z,7.30
2023-04-18T06:45:38.272Z,7.30
2023-04-18T06:48:06.307Z,7.20
2023-04-18T06:50:33.949Z,7.40
2023-04-18T06:53:02.382Z,7.40
2023-04-18T06:55:29.958Z,7.20
2023-04-18T06:57:57.554Z,7.30
2023-04-18T07:00:25.273Z,7.20
2023-04-18T07:02:53.076Z,7.40
2023-04-18T07:05:20.800Z,7.30
2023-04-18T07:07:48.464Z,7.20
2023-04-18T07:10:16.187Z,7.30
2023-04-18T07:12:43.696Z,7.50
2023-04-18T07:15:11.491Z,7.40
2023-04-18T07:17:38.976Z,7.60
2023-04-18T07:20:07.178Z,7.60
2023-04-18T07:22:34.719Z,7.60
2023-04-18T07:25:02.308Z,7.60
2023-04-18T07:27:29.783Z,7.60
2023-04-18T07:29:57.841Z,7.40
2023-04-18T07:32:25.370Z,7.50
2023-04-18T07:34:52.910Z,7.50
2023-04-18T07:37:21.535Z,7.70
2023-04-18T07:39:49.191Z,7.70
2023-04-18T07:42:16.799Z,7.70
2023-04-18T07:44:44.633Z,7.90
2023-04-18T07:47:12.411Z,8.00
2023-04-18T07:49:39.872Z,7.90
2023-04-18T07:52:07.332Z,7.90
2023-04-18T07:54:34.855Z,7.80
2023-04-18T07:57:02.411Z,8.00
2023-04-18T07:59:29.976Z,8.00
2023-04-18T08:01:57.676Z,8.20
2023-04-18T08:04:27.634Z,7.90
2023-04-18T08:06:56.864Z,8.20
2023-04-18T08:09:24.904Z,8.00
2023-04-18T08:11:52.449Z,8.00
2023-04-18T08:14:19.939Z,8.10
2023-04-18T08:16:47.474Z,8.10
2023-04-18T08:19:15.142Z,8.00
2023-04-18T08:21:42.644Z,8.10
2023-04-18T08:24:10.182Z,8.10
2023-04-18T08:26:37.641Z,8.10
2023-04-18T08:29:06.347Z,7.90
2023-04-18T08:31:34.107Z,8.00
2023-04-18T08:34:03.134Z,8.00
2023-04-18T08:36:32.437Z,8.10
2023-04-18T08:38:59.932Z,8.20
2023-04-18T08:41:28.825Z,8.10
2023-04-18T08:43:57.195Z,8.20
2023-04-18T08:46:24.975Z,8.10
2023-04-18T08:48:53.134Z,8.30
2023-04-18T08:51:21.570Z,8.30
2023-04-18T08:53:50.689Z,8.10
2023-04-18T08:56:18.267Z,8.10
2023-04-18T08:58:45.741Z,8.20
2023-04-18T09:01:13.674Z,8.40
2023-04-18T09:03:43.353Z,8.50
2023-04-18T09:06:19.366Z,8.60
2023-04-18T09:08:58.923Z,8.60
2023-04-18T09:11:29.387Z,8.80
2023-04-18T09:13:58.903Z,8.80
2023-04-18T09:16:27.957Z,8.90
2023-04-18T09:19:18.164Z,9.00
2023-04-18T09:21:48.782Z,9.00
2023-04-18T09:24:26.384Z,9.00
2023-04-18T09:26:55.956Z,9.10
2023-04-18T09:29:46.253Z,9.10
2023-04-18T09:32:30.724Z,9.10
2023-04-18T09:35:03.918Z,9.00
2023-04-18T09:37:32.169Z,8.90
2023-04-18T09:39:59.651Z,8.90
2023-04-18T09:42:28.909Z,8.80
2023-04-18T09:45:05.639Z,9.00
2023-04-18T09:47:37.662Z,9.10
2023-04-18T09:50:07.585Z,9.50
2023-04-18T09:52:37.047Z,9.80
2023-04-18T09:55:06.988Z,10.10
2023-04-18T09:57:36.013Z,10.60
2023-04-18T10:00:14.313Z,10.90
2023-04-18T10:03:08.857Z,11.10
2023-04-18T10:05:39.927Z,11.40
2023-04-18T10:08:08.108Z,11.60
2023-04-18T10:10:37.987Z,11.50
2023-04-18T10:13:08.668Z,11.80
2023-04-18T10:15:36.334Z,12.10
2023-04-18T10:18:10.353Z,11.90
2023-04-18T10:20:40.760Z,12.10
2023-04-18T10:23:35.946Z,12.10
2023-04-18T10:26:05.769Z,12.40
2023-04-18T10:28:56.799Z,12.60
2023-04-18T10:31:28.452Z,12.70
2023-04-18T10:36:29.260Z,13.20
2023-04-18T10:39:03.869Z,13.20
2023-04-18T10:41:34.330Z,13.20
2023-04-18T10:44:08.771Z,13.40
2023-04-18T10:46:57.589Z,13.10
2023-04-18T10:49:28.893Z,12.60
2023-04-18T10:51:59.574Z,12.90
2023-04-18T10:54:41.928Z,13.20
2023-04-18T10:57:10.481Z,13.30
2023-04-18T10:59:39.852Z,13.60
2023-04-18T11:02:10.149Z,13.40
2023-04-18T11:04:38.145Z,13.20
2023-04-18T11:07:05.618Z,13.40
2023-04-18T11:09:33.176Z,13.20
2023-04-18T11:12:05.325Z,12.80
2023-04-18T11:14:43.079Z,12.70
2023-04-18T11:17:25.134Z,12.70
2023-04-18T11:20:04.488Z,12.70
2023-04-18T11:22:32.004Z,13.10
2023-04-18T11:25:00.940Z,13.00
2023-04-18T11:27:29.962Z,12.60
2023-04-18T11:29:57.455Z,12.60
2023-04-18T11:32:25.156Z,12.70
2023-04-18T11:34:54.530Z,12.90
2023-04-18T11:37:22.588Z,12.50
2023-04-18T11:39:53.829Z,12.20
2023-04-18T11:42:25.925Z,12.10
2023-04-18T11:44:53.476Z,12.00
2023-04-18T11:47:29.049Z,12.10
2023-04-18T11:50:00.374Z,11.80
2023-04-18T11:52:29.538Z,11.80
2023-04-18T11:55:14.667Z,11.60
2023-04-18T11:57:42.370Z,12.10
2023-04-18T12:00:12.328Z,11.90
2023-04-18T12:02:43.898Z,12.00
2023-04-18T12:05:14.998Z,12.30
2023-04-18T12:07:45.315Z,12.20
2023-04-18T12:10:29.825Z,12.10
2023-04-18T12:12:59.076Z,12.10
2023-04-18T12:15:28.668Z,12.00
2023-04-18T12:18:05.012Z,11.60
2023-04-18T12:20:54.339Z,11.90
2023-04-18T12:23:42.473Z,12.10
2023-04-18T12:26:16.086Z,12.30
2023-04-18T12:28:46.252Z,12.40
2023-04-18T12:31:13.770Z,12.40
2023-04-18T12:33:41.259Z,12.10
2023-04-18T12:36:10.479Z,11.90
2023-04-18T12:38:38.192Z,12.00
2023-04-18T12:41:05.864Z,11.90
2023-04-18T12:43:33.398Z,12.20
2023-04-18T12:46:01.269Z,12.20
2023-04-18T12:48:28.883Z,12.10
2023-04-18T12:50:56.419Z,12.40
2023-04-18T12:53:23.942Z,12.20
2023-04-18T12:55:52.045Z,12.30
2023-04-18T12:58:20.685Z,12.10
2023-04-18T13:00:48.190Z,12.30
2023-04-18T13:03:15.748Z,12.20
2023-04-18T13:05:43.602Z,12.00
2023-04-18T13:08:16.946Z,12.10
2023-04-18T13:10:47.486Z,12.20
2023-04-18T13:13:15.241Z,12.30
2023-04-18T13:15:42.831Z,12.10
2023-04-18T13:18:10.375Z,12.00
2023-04-18T13:20:37.853Z,11.90
2023-04-18T13:23:05.548Z,12.00
2023-04-18T13:25:33.070Z,11.70
2023-04-18T13:28:00.937Z,11.50
2023-04-18T13:30:28.710Z,11.60
2023-04-18T13:32:56.904Z,11.90
2023-04-18T13:35:24.606Z,12.10
2023-04-18T13:37:52.068Z,11.80
2023-04-18T13:40:19.684Z,11.70
2023-04-18T13:42:47.180Z,11.70
2023-04-18T13:45:14.612Z,11.80
2023-04-18T13:47:42.164Z,11.90
2023-04-18T13:50:10.216Z,12.10
2023-04-18T13:52:37.734Z,12.10
2023-04-18T13:55:05.639Z,11.60
2023-04-18T13:57:33.660Z,11.80
2023-04-18T14:00:01.370Z,11.90
2023-04-18T14:02:39.603Z,11.80
2023-04-18T14:05:07.786Z,11.90
2023-04-18T14:07:36.382Z,11.70
2023-04-18T14:10:04.765Z,11.70
2023-04-18T14:12:32.340Z,11.70
2023-04-18T14:14:59.848Z,11.80
2023-04-18T14:17:27.382Z,12.10
2023-04-18T14:19:54.991Z,12.00
2023-04-18T14:22:22.448Z,11.90
2023-04-18T14:24:52.419Z,11.90
2023-04-18T14:27:20.211Z,11.80
2023-04-18T14:29:48.897Z,11.70
2023-04-18T14:32:16.458Z,11.50
2023-04-18T14:34:44.039Z,11.60
2023-04-18T14:37:11.602Z,11.40
2023-04-18T14:39:39.098Z,11.70
2023-04-18T14:42:06.692Z,11.60
2023-04-18T14:44:34.163Z,11.70
2023-04-18T14:47:01.808Z,11.70
2023-04-18T14:49:29.369Z,11.70
2023-04-18T14:51:56.893Z,11.70
2023-04-18T14:54:24.497Z,11.30
2023-04-18T14:56:51.965Z,11.50
2023-04-18T14:59:19.770Z,11.50
2023-04-18T15:01:47.708Z,11.60
2023-04-18T15:04:15.732Z,11.70
2023-04-18T15:06:43.594Z,11.60
2023-04-18T15:09:11.233Z,11.60
2023-04-18T15:11:38.780Z,11.60
2023-04-18T15:14:06.541Z,11.70
2023-04-18T15:16:35.337Z,11.70
2023-04-18T15:19:02.924Z,11.60
2023-04-18T15:21:30.468Z,11.60
2023-04-18T15:23:59.053Z,11.60
2023-04-18T15:26:26.809Z,11.50
2023-04-18T15:28:57.142Z,11.70
2023-04-18T15:31:24.967Z,11.70
2023-04-18T15:33:52.480Z,11.80
2023-04-18T15:36:19.988Z,11.60
2023-04-18T15:38:47.693Z,11.70
2023-04-18T15:41:15.164Z,11.60
2023-04-18T15:43:42.812Z,11.70
2023-04-18T15:46:10.881Z,11.70
2023-04-18T15:48:38.550Z,11.50
2023-04-18T15:51:06.304Z,11.50
2023-04-18T15:53:33.762Z,11.30
2023-04-18T15:56:01.878Z,11.40
2023-04-18T15:58:30.308Z,11.40
2023-04-18T16:00:58.130Z,11.50
2023-04-18T16:03:25.829Z,11.40
2023-04-18T16:05:53.554Z,11.30
2023-04-18T16:08:21.029Z,11.40
2023-04-18T16:10:48.611Z,11.50
2023-04-18T16:13:16.097Z,11.50
2023-04-18T16:15:43.695Z,11.50
2023-04-18T16:18:11.299Z,11.40
2023-04-18T16:20:38.883Z,11.40
2023-04-18T16:23:06.355Z,11.40
2023-04-18T16:25:33.871Z,11.50
2023-04-18T16:28:01.297Z,11.40
2023-04-18T16:30:28.884Z,11.40
2023-04-18T16:32:56.509Z,11.30
2023-04-18T16:35:24.241Z,11.20
2023-04-18T16:37:51.874Z,11.30
2023-04-18T16:40:19.512Z,11.40
2023-04-18T16:42:47.030Z,11.50
2023-04-18T16:45:14.583Z,11.40
2023-04-18T16:47:42.028Z,11.50
2023-04-18T16:50:09.915Z,11.40
2023-04-18T16:52:37.401Z,11.30
2023-04-18T16:55:05.194Z,11.30
2023-04-18T16:57:32.916Z,11.20
2023-04-18T17:00:02.720Z,11.00
2023-04-18T17:02:30.379Z,10.90
2023-04-18T17:04:58.427Z,10.90
2023-04-18T17:07:26.390Z,10.90
2023-04-18T17:09:54.113Z,10.90
2023-04-18T17:12:21.765Z,10.90
2023-04-18T17:14:49.273Z,10.80
2023-04-18T17:17:16.807Z,10.80
2023-04-18T17:19:44.288Z,10.90
2023-04-18T17:22:12.126Z,10.90
2023-04-18T17:24:39.689Z,10.80
2023-04-18T17:27:07.205Z,10.80
2023-04-18T17:29:34.731Z,10.70
2023-04-18T17:32:02.422Z,10.60
2023-04-18T17:34:29.982Z,10.70
2023-04-18T17:36:57.618Z,10.60
2023-04-18T17:39:25.149Z,10.60
2023-04-18T17:41:53.227Z,10.60
2023-04-18T17:44:20.794Z,10.50
2023-04-18T17:46:50.000Z,10.40
2023-04-18T17:49:18.151Z,10.50
2023-04-18T17:51:45.667Z,10.40
2023-04-18T17:54:13.912Z,11.60
2023-04-18T17:56:41.475Z,10.40
2023-04-18T17:59:09.896Z,10.30
2023-04-18T18:01:38.031Z,10.40
2023-04-18T18:04:05.971Z,10.40
2023-04-18T18:06:33.405Z,10.30
2023-04-18T18:09:00.858Z,10.30
2023-04-18T18:11:28.495Z,10.40
2023-04-18T18:13:57.503Z,10.30
2023-04-18T18:16:25.187Z,10.30
2023-04-18T18:18:52.850Z,10.30
2023-04-18T18:21:20.436Z,10.10
2023-04-18T18:23:48.424Z,10.20
2023-04-18T18:26:15.937Z,10.30
2023-04-18T18:28:43.444Z,10.20
2023-04-18T18:31:11.116Z,10.20
2023-04-18T18:33:38.929Z,10.20
2023-04-18T18:36:06.826Z,10.10
2023-04-18T18:38:34.397Z,10.10
2023-04-18T18:41:03.794Z,10.10
2023-04-18T18:43:32.184Z,9.90
2023-04-18T18:46:00.021Z,9.90
2023-04-18T18:48:28.413Z,9.90
2023-04-18T18:50:56.649Z,10.00
2023-04-18T18:53:24.172Z,9.90
2023-04-18T18:55:51.678Z,9.80
2023-04-18T18:58:19.136Z,9.90
2023-04-18T19:00:46.991Z,9.90
2023-04-18T19:03:18.330Z,9.90
2023-04-18T19:05:47.018Z,9.80
2023-04-18T19:08:15.065Z,9.80
2023-04-18T19:10:43.203Z,9.70
2023-04-18T19:13:10.825Z,9.70
2023-04-18T19:15:38.397Z,9.50
2023-04-18T19:18:06.139Z,9.60
2023-04-18T19:20:33.820Z,9.60
2023-04-18T19:23:01.335Z,9.60
2023-04-18T19:25:28.821Z,9.50
2023-04-18T19:27:56.291Z,9.40
2023-04-18T19:30:25.067Z,9.40
2023-04-18T19:32:53.897Z,9.60
2023-04-18T19:35:21.579Z,9.50
2023-04-18T19:37:48.982Z,9.30
2023-04-18T19:40:16.595Z,9.40
2023-04-18T19:42:44.191Z,9.40
2023-04-18T19:45:12.129Z,9.30
2023-04-18T19:47:39.628Z,9.40
2023-04-18T19:50:08.011Z,9.30
2023-04-18T19:52:35.643Z,9.40
2023-04-18T19:55:03.179Z,9.40
2023-04-18T19:57:30.884Z,9.30
2023-04-18T19:59:58.470Z,9.30
2023-04-18T20:02:26.164Z,9.30
2023-04-18T20:04:53.983Z,9.30
2023-04-18T20:07:22.386Z,9.20
2023-04-18T20:09:53.084Z,9.30
2023-04-18T20:12:20.520Z,9.30
2023-04-18T20:14:48.036Z,9.20
2023-04-18T20:17:15.513Z,9.30
2023-04-18T20:19:47.133Z,9.20
2023-04-18T20:22:15.086Z,9.20
2023-04-18T20:24:42.799Z,9.30
2023-04-18T20:27:10.556Z,9.20
2023-04-18T20:29:38.112Z,9.20
2023-04-18T20:32:06.080Z,9.20
2023-04-18T20:34:33.814Z,9.20
2023-04-18T20:37:02.006Z,9.20
2023-04-18T20:39:29.556Z,9.20
2023-04-18T20:41:57.815Z,9.20
2023-04-18T20:44:25.419Z,9.30
2023-04-18T20:46:55.901Z,9.30
2023-04-18T20:49:23.352Z,9.20
2023-04-18T20:51:50.863Z,9.10
2023-04-18T20:54:18.377Z,9.10
2023-04-18T20:56:45.891Z,9.00
2023-04-18T20:59:13.456Z,9.10
2023-04-18T21:01:41.290Z,9.10
2023-04-18T21:04:09.159Z,9.20
2023-04-18T21:06:36.775Z,9.10
2023-04-18T21:09:04.277Z,9.00
2023-04-18T21:11:31.768Z,9.00
2023-04-18T21:13:59.394Z,9.10
2023-04-18T21:16:26.991Z,8.90
2023-04-18T21:18:55.131Z,8.90
2023-04-18T21:21:22.753Z,8.90
2023-04-18T21:23:50.250Z,9.00
2023-04-18T21:26:17.748Z,8.90
2023-04-18T21:29:02.648Z,8.90
2023-04-18T21:31:31.897Z,8.90
2023-04-18T21:34:01.590Z,8.90
2023-04-18T21:36:31.056Z,8.90
2023-04-18T21:39:00.834Z,9.00
2023-04-18T21:41:31.216Z,8.90
2023-04-18T21:43:58.765Z,8.90
2023-04-18T21:46:26.505Z,8.90
2023-04-18T21:48:54.172Z,8.80
2023-04-18T21:51:21.828Z,8.80
2023-04-18T21:53:49.335Z,8.90
2023-04-18T21:56:17.154Z,8.80
2023-04-18T21:58:44.734Z,8.90
2023-04-18T22:01:12.273Z,8.80
2023-04-18T22:03:40.253Z,8.90
2023-04-18T22:06:07.982Z,8.70
2023-04-18T22:08:36.033Z,8.70
2023-04-18T22:11:04.785Z,8.70
2023-04-18T22:13:35.753Z,8.80
2023-04-18T22:16:03.926Z,8.70
2023-04-18T22:18:34.561Z,8.70
2023-04-18T22:21:03.414Z,8.70
2023-04-18T22:23:31.291Z,8.70
2023-04-18T22:25:58.938Z,8.80
2023-04-18T22:28:28.031Z,8.70
2023-04-18T22:30:55.920Z,8.70
2023-04-18T22:33:23.754Z,8.60
2023-04-18T22:35:51.262Z,8.60
2023-04-18T22:38:18.819Z,8.50
2023-04-18T22:40:46.440Z,8.60
2023-04-18T22:43:14.127Z,8.50
2023-04-18T22:45:41.596Z,8.40
2023-04-18T22:48:11.514Z,8.30
2023-04-18T22:50:42.829Z,8.40
2023-04-18T22:53:11.205Z,8.20
2023-04-18T22:55:40.436Z,8.20
2023-04-18T22:58:08.479Z,8.10
2023-04-18T23:00:36.533Z,8.20
2023-04-18T23:03:04.670Z,8.20
2023-04-18T23:05:32.376Z,8.20
2023-04-18T23:08:00.484Z,8.20
2023-04-18T23:10:28.414Z,8.00
2023-04-18T23:12:56.486Z,8.10
2023-04-18T23:15:24.681Z,8.00
2023-04-18T23:17:53.290Z,7.90
2023-04-18T23:20:21.438Z,7.80
2023-04-18T23:22:51.635Z,7.70
2023-04-18T23:25:22.314Z,7.80
2023-04-18T23:27:49.965Z,7.90
2023-04-18T23:30:17.488Z,7.90
2023-04-18T23:32:44.994Z,7.80
2023-04-18T23:35:12.690Z,7.70
2023-04-18T23:37:40.336Z,7.70
2023-04-18T23:40:08.462Z,7.80
2023-04-18T23:42:36.358Z,7.90
2023-04-18T23:45:04.690Z,7.70
2023-04-18T23:47:32.273Z,7.60
2023-04-18T23:49:59.813Z,7.50
2023-04-18T23:52:27.462Z,7.60
2023-04-18T23:54:55.656Z,7.50
2023-04-18T23:57:23.200Z,7.50
2023-04-18T23:59:50.700Z,7.30
